Time;durP1;ratioP1;P1;durP2;ratioP2;P2;SDS_P1;SDS_P2;PMS_P1;PMS_P2;Temp;Humidity;BMP_temperature;BMP_pressure;BME280_temperature;BME280_humidity;BME280_pressure;Samples;Min_cycle;Max_cycle;Signal;HPM_P1;HPM_P2
2022/04/30 00:00:36;;;;;;;37.42;21.60;;;;;;;10.33;100.00;98254.88;5000744;28;20133;-70
2022/04/30 00:03:05;;;;;;;39.22;22.75;;;;;;;10.16;100.00;98255.34;4987764;28;20160;-70
2022/04/30 00:05:34;;;;;;;35.15;21.73;;;;;;;10.13;100.00;98254.59;5000582;28;20058;-71
2022/04/30 00:08:04;;;;;;;31.83;21.67;;;;;;;10.21;100.00;98252.59;4991822;28;20045;-70
2022/04/30 00:10:37;;;;;;;35.03;21.98;;;;;;;10.02;100.00;98258.34;5019736;28;20495;-70
2022/04/30 00:13:12;;;;;;;29.85;20.55;;;;;;;10.05;100.00;98253.06;5003077;28;20061;-70
2022/04/30 00:15:44;;;;;;;33.00;21.40;;;;;;;9.97;100.00;98251.63;5016732;28;20064;-70
2022/04/30 00:18:12;;;;;;;31.40;20.73;;;;;;;9.96;100.00;98250.75;5002527;28;20106;-71
2022/04/30 00:20:51;;;;;;;31.05;21.13;;;;;;;9.95;100.00;98246.47;5001868;28;20125;-71
2022/04/30 00:23:21;;;;;;;31.15;20.67;;;;;;;9.93;100.00;98247.41;5001306;28;20117;-70
2022/04/30 00:25:56;;;;;;;31.08;20.67;;;;;;;9.94;100.00;98246.50;4999630;28;20060;-70
2022/04/30 00:28:27;;;;;;;31.33;20.67;;;;;;;9.81;100.00;98246.88;5002716;28;20081;-71
2022/04/30 00:30:58;;;;;;;34.22;19.67;;;;;;;9.83;100.00;98234.72;5001260;28;20137;-71
2022/04/30 00:33:28;;;;;;;31.45;21.42;;;;;;;9.82;100.00;98237.34;4986176;28;20133;-70
2022/04/30 00:35:59;;;;;;;27.08;20.35;;;;;;;9.80;100.00;98237.38;4983010;28;20045;-71
2022/04/30 00:38:30;;;;;;;29.13;20.10;;;;;;;9.76;100.00;98238.38;4983444;28;20078;-70
2022/04/30 00:41:00;;;;;;;28.83;19.83;;;;;;;9.76;100.00;98230.59;4999809;28;20049;-71
2022/04/30 00:43:31;;;;;;;28.25;19.80;;;;;;;9.80;100.00;98223.56;4999993;28;20061;-70
2022/04/30 00:46:02;;;;;;;31.83;21.13;;;;;;;9.70;100.00;98235.09;4999552;28;20054;-71
2022/04/30 00:48:34;;;;;;;27.83;20.02;;;;;;;9.71;100.00;98216.91;5001141;28;20401;-69
2022/04/30 00:51:06;;;;;;;27.85;20.33;;;;;;;9.74;100.00;98224.59;4983754;28;20141;-71
2022/04/30 00:53:40;;;;;;;32.03;19.75;;;;;;;9.62;100.00;98225.81;5003123;28;20985;-70
2022/04/30 00:56:25;;;;;;;34.45;19.98;;;;;;;9.64;100.00;98226.59;4997970;28;20078;-70
2022/04/30 00:59:11;;;;;;;25.98;19.10;;;;;;;9.64;100.00;98228.34;5001862;28;20136;-70
2022/04/30 01:02:18;;;;;;;27.73;20.33;;;;;;;9.58;100.00;98224.19;5001621;28;20478;-70
2022/04/30 01:04:49;;;;;;;32.95;21.85;;;;;;;9.55;100.00;98218.22;4999740;28;20133;-70
2022/04/30 01:07:18;;;;;;;30.95;21.38;;;;;;;9.51;100.00;98224.38;4997019;28;20054;-71
2022/04/30 01:09:47;;;;;;;29.63;21.23;;;;;;;9.43;100.00;98220.28;5012449;28;20595;-70
2022/04/30 01:12:15;;;;;;;32.33;21.23;;;;;;;9.41;100.00;98209.09;5001545;28;20137;-70
2022/04/30 01:14:42;;;;;;;30.75;21.23;;;;;;;9.36;100.00;98220.50;5001829;28;20073;-70
2022/04/30 01:17:11;;;;;;;36.90;21.52;;;;;;;9.42;100.00;98216.00;4978452;28;20586;-71
2022/04/30 01:19:42;;;;;;;31.77;23.05;;;;;;;9.36;100.00;98212.72;5002312;28;20086;-71
2022/04/30 01:22:12;;;;;;;31.25;21.30;;;;;;;9.33;100.00;98213.66;5000335;28;20057;-71
2022/04/30 01:24:40;;;;;;;30.05;22.35;;;;;;;9.29;100.00;98211.19;5000436;28;20555;-71
2022/04/30 01:27:08;;;;;;;28.80;22.45;;;;;;;9.25;100.00;98206.97;5010250;28;20140;-71
2022/04/30 01:29:37;;;;;;;33.10;23.33;;;;;;;9.23;100.00;98203.56;4965737;28;20069;-70
2022/04/30 01:37:37;;;;;;;32.38;23.60;;;;;;;9.09;100.00;98204.78;5000788;28;20138;-71
2022/04/30 01:40:09;;;;;;;35.58;24.15;;;;;;;9.04;100.00;98206.66;5002958;28;20416;-71
2022/04/30 01:42:40;;;;;;;29.83;22.65;;;;;;;9.06;100.00;98199.72;5000160;28;20046;-71
2022/04/30 01:45:09;;;;;;;35.40;23.35;;;;;;;9.04;100.00;98204.06;5004424;28;20077;-70
2022/04/30 01:47:38;;;;;;;32.38;23.63;;;;;;;8.97;100.00;98202.53;4983533;28;20103;-71
2022/04/30 01:50:07;;;;;;;32.78;24.20;;;;;;;8.93;100.00;98203.50;4981782;28;20063;-70
2022/04/30 01:52:35;;;;;;;34.05;23.90;;;;;;;8.95;100.00;98197.38;4984671;28;20137;-70
2022/04/30 01:55:03;;;;;;;32.30;23.30;;;;;;;8.92;100.00;98191.47;5001373;28;20112;-71
2022/04/30 01:57:31;;;;;;;29.77;22.45;;;;;;;8.92;100.00;98192.31;4989584;28;20074;-71
2022/04/30 02:00:00;;;;;;;35.70;23.38;;;;;;;8.92;100.00;98191.47;5002158;28;20082;-70
2022/04/30 02:02:34;;;;;;;32.50;23.17;;;;;;;8.91;100.00;98198.34;4988253;28;20136;-70
2022/04/30 02:05:06;;;;;;;31.23;22.23;;;;;;;8.87;100.00;98191.59;5004203;28;20084;-70
2022/04/30 02:07:37;;;;;;;33.10;23.05;;;;;;;8.88;100.00;98192.41;5004112;28;20129;-71
2022/04/30 02:10:07;;;;;;;31.02;22.38;;;;;;;8.86;100.00;98186.44;5002266;28;20132;-70
2022/04/30 02:12:35;;;;;;;32.42;22.50;;;;;;;8.87;100.00;98182.94;5000858;28;20205;-70
2022/04/30 02:15:04;;;;;;;34.53;23.02;;;;;;;8.83;100.00;98165.81;5002110;28;20077;-70
2022/04/30 02:17:36;;;;;;;31.60;22.08;;;;;;;8.87;100.00;98165.69;5001861;28;20708;-69
2022/04/30 02:22:54;;;;;;;29.02;21.90;;;;;;;8.87;100.00;98170.00;5001497;28;20132;-71
2022/04/30 02:25:23;;;;;;;27.63;21.35;;;;;;;8.85;100.00;98171.78;5003943;28;20135;-70
2022/04/30 02:27:53;;;;;;;29.33;21.90;;;;;;;8.87;100.00;98173.47;5001969;28;20096;-70
2022/04/30 02:30:22;;;;;;;29.25;21.27;;;;;;;8.86;100.00;98165.72;5000915;28;20068;-70
2022/04/30 02:32:52;;;;;;;30.75;20.10;;;;;;;8.87;100.00;98157.94;5001811;28;20129;-69
2022/04/30 02:35:24;;;;;;;30.95;19.50;;;;;;;8.95;100.00;98161.13;4999015;28;20137;-71
2022/04/30 02:37:54;;;;;;;30.60;21.27;;;;;;;8.89;100.00;98155.28;5001397;28;20133;-71
2022/04/30 02:40:24;;;;;;;24.98;20.20;;;;;;;8.86;100.00;98155.38;4997434;28;20045;-71
2022/04/30 02:42:53;;;;;;;26.17;19.15;;;;;;;8.97;100.00;98149.00;5000572;28;20053;-71
2022/04/30 02:45:22;;;;;;;22.60;18.20;;;;;;;9.00;100.00;98142.91;5016507;28;20536;-71
2022/04/30 02:47:53;;;;;;;23.85;18.25;;;;;;;8.88;100.00;98140.66;4986413;28;20054;-71
2022/04/30 02:50:22;;;;;;;25.23;17.70;;;;;;;8.91;100.00;98135.38;4966139;28;20066;-70
2022/04/30 02:52:52;;;;;;;26.05;18.92;;;;;;;8.97;100.00;98137.81;4996571;28;20046;-70
2022/04/30 02:55:21;;;;;;;27.73;18.45;;;;;;;8.97;100.00;98143.00;5001171;28;20109;-69
2022/04/30 03:00:39;;;;;;;27.33;18.67;;;;;;;8.93;100.00;98144.78;4991066;28;20046;-70
2022/04/30 03:03:10;;;;;;;24.90;16.92;;;;;;;8.94;100.00;98136.16;4993228;28;20119;-70
2022/04/30 03:05:43;;;;;;;24.55;18.27;;;;;;;8.96;100.00;98128.31;5002949;28;20064;-70
2022/04/30 03:08:18;;;;;;;26.88;17.40;;;;;;;8.98;100.00;98129.13;5004970;28;20065;-71
2022/04/30 03:10:46;;;;;;;23.20;15.25;;;;;;;8.95;100.00;98137.84;4985397;28;20136;-71
2022/04/30 03:13:14;;;;;;;25.25;15.85;;;;;;;8.92;100.00;98131.91;4987341;28;20077;-71
2022/04/30 03:15:45;;;;;;;26.13;16.27;;;;;;;8.82;100.00;98128.69;5004667;28;20052;-70
2022/04/30 03:23:51;;;;;;;23.17;15.20;;;;;;;8.81;100.00;98118.41;5002356;28;20536;-71
2022/04/30 03:26:26;;;;;;;23.65;14.80;;;;;;;8.72;100.00;98122.09;5003309;28;20115;-71
2022/04/30 03:28:55;;;;;;;26.70;15.95;;;;;;;8.72;100.00;98119.50;4990180;28;20054;-71
2022/04/30 03:31:22;;;;;;;21.15;13.73;;;;;;;8.79;100.00;98113.25;5006992;28;20108;-70
2022/04/30 03:33:50;;;;;;;22.88;14.98;;;;;;;8.79;100.00;98124.47;5000393;28;20088;-70
2022/04/30 03:36:18;;;;;;;31.73;15.77;;;;;;;8.77;100.00;98126.22;5001668;28;20077;-70
2022/04/30 03:38:47;;;;;;;27.65;15.77;;;;;;;8.77;100.00;98120.22;5002887;28;20081;-70
2022/04/30 03:41:15;;;;;;;23.67;14.35;;;;;;;8.70;100.00;98116.94;4989133;28;20060;-70
2022/04/30 03:43:43;;;;;;;22.35;15.50;;;;;;;8.75;100.00;98119.41;5000591;28;20471;-71
2022/04/30 03:46:10;;;;;;;25.83;15.63;;;;;;;8.67;100.00;98117.03;5004766;28;20089;-70
2022/04/30 03:48:38;;;;;;;25.42;15.55;;;;;;;8.64;100.00;98117.09;5006267;28;20125;-71
2022/04/30 03:51:05;;;;;;;25.73;15.55;;;;;;;8.65;100.00;98121.41;5004177;28;20050;-71
2022/04/30 03:53:34;;;;;;;22.83;14.70;;;;;;;8.54;100.00;98113.06;5003610;28;20397;-69
2022/04/30 03:56:02;;;;;;;24.38;15.40;;;;;;;8.52;100.00;98125.19;4988441;28;20140;-72
2022/04/30 03:58:30;;;;;;;24.08;14.45;;;;;;;8.45;100.00;98119.31;5004966;28;20073;-70
2022/04/30 04:00:57;;;;;;;21.25;15.07;;;;;;;8.44;100.00;98119.34;5003581;28;20145;-70
2022/04/30 04:03:25;;;;;;;26.10;15.60;;;;;;;8.39;100.00;98124.59;4986489;28;20103;-69
2022/04/30 04:05:52;;;;;;;20.42;14.52;;;;;;;8.43;100.00;98121.09;4990252;28;20093;-69
2022/04/30 04:08:20;;;;;;;22.40;14.00;;;;;;;8.38;100.00;98121.16;5003292;28;20050;-70
2022/04/30 04:10:48;;;;;;;22.67;15.45;;;;;;;8.31;100.00;98124.81;5015485;28;20051;-72
2022/04/30 04:18:51;;;;;;;20.55;13.80;;;;;;;8.34;100.00;98129.88;4996838;28;20119;-72
2022/04/30 04:21:20;;;;;;;26.50;14.10;;;;;;;8.38;100.00;98128.94;5001689;28;20057;-71
2022/04/30 04:26:33;;;;;;;19.00;13.93;;;;;;;8.41;100.00;98124.59;5000874;28;20212;-72
2022/04/30 04:29:00;;;;;;;21.35;14.77;;;;;;;8.39;100.00;98129.78;4995303;28;20173;-71
2022/04/30 04:31:28;;;;;;;19.55;13.18;;;;;;;8.38;100.00;98128.94;5001466;28;20076;-72
2022/04/30 04:33:56;;;;;;;22.58;14.00;;;;;;;8.46;100.00;98136.56;5001110;28;20445;-72
2022/04/30 04:36:23;;;;;;;19.50;13.68;;;;;;;8.43;100.00;98136.59;4998209;28;20124;-71
2022/04/30 04:38:50;;;;;;;23.67;14.45;;;;;;;8.46;100.00;98135.69;5005984;28;20137;-73
2022/04/30 04:41:18;;;;;;;23.85;14.70;;;;;;;8.49;100.00;98133.88;5001925;28;20511;-69
2022/04/30 04:43:45;;;;;;;20.45;13.65;;;;;;;8.46;100.00;98136.56;5001255;28;20050;-68
2022/04/30 04:46:13;;;;;;;24.17;13.68;;;;;;;8.51;100.00;98139.88;5000462;28;20467;-70
2022/04/30 04:48:41;;;;;;;25.05;14.98;;;;;;;8.60;100.00;98138.78;4997737;28;20567;-70
2022/04/30 04:51:09;;;;;;;23.48;13.88;;;;;;;8.46;100.00;98143.44;4984494;28;20133;-71
2022/04/30 04:53:36;;;;;;;21.25;13.63;;;;;;;8.56;100.00;98139.75;5003626;28;20109;-70
2022/04/30 04:56:06;;;;;;;20.73;13.73;;;;;;;8.57;100.00;98144.00;5002125;28;20128;-69
2022/04/30 04:58:33;;;;;;;24.15;14.68;;;;;;;8.48;100.00;98152.00;5002055;28;20082;-69
2022/04/30 05:01:00;;;;;;;21.88;15.20;;;;;;;8.50;100.00;98156.25;5001688;28;20647;-71
2022/04/30 05:03:28;;;;;;;22.30;14.85;;;;;;;8.53;100.00;98157.91;5001342;28;20046;-72
2022/04/30 05:05:55;;;;;;;22.35;14.68;;;;;;;8.46;100.00;98154.66;4999206;28;20047;-72
2022/04/30 05:08:22;;;;;;;26.05;14.68;;;;;;;8.46;100.00;98157.25;4998471;28;20063;-71
2022/04/30 05:10:50;;;;;;;21.38;13.20;;;;;;;8.47;100.00;98161.53;4998583;28;20636;-72
2022/04/30 05:13:18;;;;;;;22.33;14.30;;;;;;;8.50;100.00;98158.84;5014683;28;20075;-71
2022/04/30 05:15:45;;;;;;;22.77;14.15;;;;;;;8.51;100.00;98165.75;4997521;28;20527;-72
2022/04/30 05:18:13;;;;;;;21.58;14.55;;;;;;;8.51;100.00;98168.31;4998311;28;20064;-72
2022/04/30 05:20:40;;;;;;;22.83;14.85;;;;;;;8.54;100.00;98169.97;4998699;28;20050;-72
2022/04/30 05:23:10;;;;;;;22.90;14.68;;;;;;;8.44;100.00;98178.84;5007794;28;20054;-71
2022/04/30 05:25:40;;;;;;;19.95;14.38;;;;;;;8.48;100.00;98176.13;5004005;28;20484;-71
2022/04/30 05:28:09;;;;;;;21.70;15.20;;;;;;;8.49;100.00;98172.69;4983243;28;20068;-70
2022/04/30 05:30:37;;;;;;;23.58;14.95;;;;;;;8.57;100.00;98175.06;4984346;28;20048;-71
2022/04/30 05:33:04;;;;;;;26.17;15.90;;;;;;;8.52;100.00;98179.50;4999139;28;20065;-72
2022/04/30 05:35:32;;;;;;;25.83;16.02;;;;;;;8.49;100.00;98182.19;5003498;28;20084;-72
2022/04/30 05:38:00;;;;;;;22.27;15.38;;;;;;;8.58;100.00;98187.13;5001186;28;20111;-72
2022/04/30 05:40:27;;;;;;;26.92;16.25;;;;;;;8.62;100.00;98190.47;4999868;28;20512;-72
2022/04/30 05:42:55;;;;;;;26.48;16.75;;;;;;;8.57;100.00;98190.59;4999895;28;20077;-72
2022/04/30 05:45:22;;;;;;;24.40;15.40;;;;;;;8.68;100.00;98190.34;5003213;28;20140;-71
2022/04/30 05:47:50;;;;;;;23.67;16.67;;;;;;;8.76;100.00;98193.59;5000576;28;20511;-71
2022/04/30 05:50:17;;;;;;;25.17;17.80;;;;;;;8.69;100.00;98190.31;4987613;28;20121;-69
2022/04/30 05:52:45;;;;;;;26.80;17.33;;;;;;;8.75;100.00;98199.63;4999749;28;20074;-72
2022/04/30 05:55:12;;;;;;;26.60;16.48;;;;;;;8.87;100.00;98201.94;5000055;28;20049;-71
2022/04/30 05:57:41;;;;;;;27.13;18.85;;;;;;;8.78;100.00;98203.00;5000544;28;20053;-72
2022/04/30 06:00:10;;;;;;;28.75;17.90;;;;;;;8.84;100.00;98202.00;4970838;28;20080;-71
2022/04/30 06:02:37;;;;;;;23.73;18.25;;;;;;;8.82;100.00;98206.34;5014708;28;20050;-71
2022/04/30 06:05:06;;;;;;;27.02;18.20;;;;;;;9.00;100.00;98208.47;5003193;28;20052;-71
2022/04/30 06:07:33;;;;;;;27.35;19.35;;;;;;;8.96;100.00;98206.00;5002757;28;20081;-71
2022/04/30 06:10:00;;;;;;;27.80;20.42;;;;;;;9.00;100.00;98211.06;5000196;28;20072;-71
2022/04/30 06:12:29;;;;;;;26.30;19.48;;;;;;;8.93;100.00;98204.34;5001252;28;20078;-71
2022/04/30 06:14:57;;;;;;;29.13;20.63;;;;;;;8.87;100.00;98211.41;4999391;28;20104;-71
2022/04/30 06:17:24;;;;;;;25.65;20.25;;;;;;;9.01;100.00;98211.94;5000758;28;20184;-71
2022/04/30 06:19:58;;;;;;;30.05;22.10;;;;;;;8.81;100.00;98219.38;4997612;28;20265;-70
2022/04/30 06:22:25;;;;;;;24.30;20.15;;;;;;;8.98;100.00;98220.59;4987108;28;20058;-71
2022/04/30 06:24:54;;;;;;;27.00;20.42;;;;;;;9.11;100.00;98218.56;5002063;28;20050;-71
2022/04/30 06:27:21;;;;;;;26.45;20.75;;;;;;;9.21;100.00;98222.63;4999635;28;20504;-71
2022/04/30 06:29:50;;;;;;;28.52;20.85;;;;;;;9.18;100.00;98221.84;5002249;28;20460;-70
2022/04/30 06:32:18;;;;;;;30.90;22.70;;;;;;;9.03;100.00;98233.44;5004622;28;20055;-72
2022/04/30 06:34:46;;;;;;;29.73;23.30;;;;;;;9.06;100.00;98222.16;5004138;28;20046;-72
2022/04/30 06:37:14;;;;;;;30.02;23.63;;;;;;;9.00;100.00;98223.16;5006643;28;20558;-71
2022/04/30 06:39:42;;;;;;;32.00;25.77;;;;;;;8.91;100.00;98228.56;5004232;28;20128;-71
2022/04/30 06:42:10;;;;;;;34.20;23.73;;;;;;;8.93;100.00;98235.41;5005019;28;20524;-71
2022/04/30 06:44:37;;;;;;;36.10;25.55;;;;;;;8.89;100.00;98232.94;5004457;28;20076;-71
2022/04/30 06:47:05;;;;;;;36.30;25.73;;;;;;;8.91;100.00;98234.59;5020088;28;20081;-71
2022/04/30 06:49:32;;;;;;;36.08;26.35;;;;;;;8.96;100.00;98237.06;5005874;28;20470;-72
2022/04/30 06:52:00;;;;;;;36.85;27.13;;;;;;;8.82;100.00;98231.41;5005519;28;20148;-71
2022/04/30 06:57:20;;;;;;;35.47;26.80;;;;;;;8.90;100.00;98243.28;5006613;28;20049;-71
2022/04/30 07:01:24;;;;;;;33.13;25.52;;;;;;;9.00;100.00;98249.91;5001797;28;20062;-72
2022/04/30 07:02:49;;;;;;;35.17;27.40;;;;;;;9.05;100.00;98249.78;4989077;28;20054;-72
2022/04/30 07:05:16;;;;;;;36.88;27.63;;;;;;;8.92;100.00;98245.84;5004670;28;20104;-72
2022/04/30 07:07:44;;;;;;;28.33;24.58;;;;;;;9.22;100.00;98251.94;5001372;28;20141;-71
2022/04/30 07:10:11;;;;;;;31.27;25.08;;;;;;;9.28;100.00;98243.16;4992416;28;20141;-71
2022/04/30 07:12:39;;;;;;;37.45;30.48;;;;;;;9.12;100.00;98247.88;5001994;28;20442;-72
2022/04/30 07:15:06;;;;;;;36.67;28.08;;;;;;;9.11;100.00;98248.78;5002694;28;20142;-72
2022/04/30 07:17:34;;;;;;;34.00;28.30;;;;;;;9.12;100.00;98248.75;5003417;28;20133;-72
2022/04/30 07:20:01;;;;;;;35.42;27.83;;;;;;;9.00;100.00;98252.50;5005565;28;20133;-72
2022/04/30 07:22:28;;;;;;;38.13;29.23;;;;;;;9.03;100.00;98248.97;4994345;28;20057;-71
2022/04/30 07:24:56;;;;;;;35.70;28.63;;;;;;;9.09;100.00;98242.78;5004893;28;20208;-71
2022/04/30 07:27:23;;;;;;;33.42;26.85;;;;;;;9.04;100.00;98250.69;5004642;28;20124;-71
2022/04/30 07:29:50;;;;;;;37.70;30.08;;;;;;;8.96;100.00;98250.00;4998951;28;20084;-72
2022/04/30 07:32:18;;;;;;;37.40;29.58;;;;;;;8.94;100.00;98259.56;4990480;28;20133;-72
2022/04/30 07:34:45;;;;;;;37.70;27.00;;;;;;;9.14;100.00;98251.28;5001221;28;20125;-71
2022/04/30 07:37:13;;;;;;;39.80;29.92;;;;;;;9.01;100.00;98255.94;4999663;28;20104;-70
2022/04/30 07:39:41;;;;;;;36.70;28.95;;;;;;;9.04;100.00;98255.88;5004117;28;20124;-70
2022/04/30 07:42:08;;;;;;;39.08;26.83;;;;;;;9.13;100.00;98252.19;5001088;28;20134;-72
2022/04/30 07:44:36;;;;;;;36.65;27.98;;;;;;;8.97;100.00;98257.75;5000841;28;20042;-72
2022/04/30 07:47:03;;;;;;;32.25;26.33;;;;;;;9.15;100.00;98255.59;5003554;28;20149;-71
2022/04/30 07:49:31;;;;;;;34.70;27.52;;;;;;;9.07;100.00;98257.53;4997723;28;20665;-72
2022/04/30 07:51:59;;;;;;;36.05;28.05;;;;;;;9.15;100.00;98261.63;4988657;28;20112;-72
2022/04/30 07:54:26;;;;;;;36.00;27.27;;;;;;;9.30;100.00;98256.91;5003412;28;20038;-72
2022/04/30 07:56:55;;;;;;;34.10;26.40;;;;;;;9.33;100.00;98269.81;4987665;28;20081;-72
2022/04/30 07:59:23;;;;;;;36.72;29.95;;;;;;;9.09;100.00;98263.50;4987164;28;20136;-72
2022/04/30 08:01:51;;;;;;;38.33;27.65;;;;;;;9.03;100.00;98256.72;5000435;28;20058;-70
2022/04/30 08:04:19;;;;;;;40.25;28.88;;;;;;;9.11;100.00;98261.75;5001781;28;20127;-71
2022/04/30 08:06:46;;;;;;;35.00;27.20;;;;;;;9.38;100.00;98262.75;5000245;28;20128;-72
2022/04/30 08:09:13;;;;;;;36.28;27.40;;;;;;;9.31;100.00;98264.66;5016809;28;20081;-71
2022/04/30 08:11:41;;;;;;;40.55;27.02;;;;;;;9.31;100.00;98262.06;5001128;28;20072;-72
2022/04/30 08:14:08;;;;;;;37.90;28.55;;;;;;;9.13;100.00;98263.41;5004569;28;21489;-70
2022/04/30 08:16:36;;;;;;;41.13;28.73;;;;;;;9.14;100.00;98270.25;4999296;28;20058;-71
2022/04/30 08:19:03;;;;;;;41.22;29.92;;;;;;;9.11;100.00;98277.28;5004792;28;20245;-70
2022/04/30 08:21:31;;;;;;;39.05;30.63;;;;;;;8.92;100.00;98276.91;5003246;28;20426;-71
2022/04/30 08:23:58;;;;;;;41.58;30.60;;;;;;;8.96;100.00;98281.09;4995752;28;20046;-69
2022/04/30 08:26:26;;;;;;;36.85;30.25;;;;;;;9.06;100.00;98284.31;4995903;28;20508;-71
2022/04/30 08:28:53;;;;;;;43.83;30.80;;;;;;;9.03;100.00;98274.88;4998623;28;20539;-71
2022/04/30 08:31:20;;;;;;;38.13;29.30;;;;;;;9.14;100.00;98279.78;5002300;28;20136;-70
2022/04/30 08:33:48;;;;;;;37.15;28.33;;;;;;;9.15;100.00;98274.56;5000763;28;20393;-71
2022/04/30 08:36:17;;;;;;;40.30;27.60;;;;;;;9.42;100.00;98278.19;5001184;28;20087;-71
2022/04/30 08:38:45;;;;;;;40.00;29.38;;;;;;;9.31;100.00;98274.19;4997294;28;20133;-71
2022/04/30 08:41:13;;;;;;;36.92;29.73;;;;;;;9.12;100.00;98279.84;4999322;28;20058;-71
2022/04/30 08:43:41;;;;;;;40.95;30.48;;;;;;;9.17;100.00;98277.97;5002270;28;20108;-70
2022/04/30 08:46:08;;;;;;;41.28;29.75;;;;;;;9.24;100.00;98285.56;4998475;28;20137;-71
2022/04/30 08:48:36;;;;;;;40.92;28.90;;;;;;;9.41;100.00;98279.06;5002880;28;20516;-71
2022/04/30 08:51:03;;;;;;;37.08;27.27;;;;;;;9.70;100.00;98277.44;5016196;28;20043;-72
2022/04/30 08:53:30;;;;;;;37.78;28.35;;;;;;;9.42;100.00;98280.78;4999907;28;20151;-71
2022/04/30 08:55:58;;;;;;;37.58;28.52;;;;;;;9.56;100.00;98279.56;4998104;28;20081;-71
2022/04/30 08:58:25;;;;;;;40.85;28.55;;;;;;;9.53;100.00;98279.63;4999029;28;21108;-70
2022/04/30 09:00:53;;;;;;;37.63;26.90;;;;;;;9.51;100.00;98286.59;5002003;28;20049;-71
2022/04/30 09:03:21;;;;;;;35.63;26.98;;;;;;;9.97;100.00;98277.53;5004829;28;20104;-71
2022/04/30 09:05:48;;;;;;;33.60;25.58;;;;;;;9.98;100.00;98271.44;5002743;28;20273;-71
2022/04/30 09:08:16;;;;;;;39.15;26.23;;;;;;;10.03;100.00;98266.97;4999320;28;20183;-71
2022/04/30 09:10:44;;;;;;;35.15;26.17;;;;;;;9.69;100.00;98262.75;4996350;28;20581;-71
2022/04/30 09:13:16;;;;;;;35.88;25.83;;;;;;;9.85;100.00;98270.94;4978565;28;20075;-72
2022/04/30 09:15:47;;;;;;;29.75;22.35;;;;;;;10.42;100.00;98264.97;4985712;28;20042;-72
2022/04/30 09:18:17;;;;;;;30.33;21.73;;;;;;;10.36;100.00;98256.53;4998483;28;20053;-72
2022/04/30 09:20:53;;;;;;;30.52;23.10;;;;;;;10.46;100.00;98258.78;4981541;28;20076;-71
2022/04/30 09:23:38;;;;;;;32.42;25.42;;;;;;;10.35;100.00;98258.25;5002010;28;20080;-71
2022/04/30 09:26:09;;;;;;;34.85;23.08;;;;;;;10.60;100.00;98249.69;4997728;28;20092;-71
2022/04/30 09:28:38;;;;;;;27.52;19.60;;;;;;;10.94;100.00;98251.19;5001040;28;20131;-71
2022/04/30 09:31:16;;;;;;;27.92;20.83;;;;;;;10.64;100.00;98246.97;4979890;28;20074;-71
2022/04/30 09:33:49;;;;;;;28.63;22.40;;;;;;;10.56;100.00;98246.38;5001032;28;20058;-69
2022/04/30 09:39:12;;;;;;;32.20;22.27;;;;;;;10.17;100.00;98249.28;4999939;28;20115;-71
2022/04/30 09:41:40;;;;;;;27.10;20.15;;;;;;;10.45;100.00;98249.28;4999935;28;20142;-69
2022/04/30 09:44:09;;;;;;;26.38;20.52;;;;;;;10.58;100.00;98239.38;5011974;28;20090;-72
2022/04/30 09:46:39;;;;;;;25.25;19.70;;;;;;;10.57;100.00;98245.47;5002739;28;20062;-69
2022/04/30 09:54:42;;;;;;;21.00;17.50;;;;;;;10.83;100.00;98239.44;5001611;28;20133;-68
2022/04/30 09:57:10;;;;;;;25.30;17.67;;;;;;;10.89;100.00;98240.97;5013458;28;20053;-72
2022/04/30 09:59:39;;;;;;;22.70;17.67;;;;;;;10.67;100.00;98233.03;5004565;28;20141;-70
2022/04/30 10:02:09;;;;;;;21.45;17.10;;;;;;;10.72;100.00;98228.56;4997021;28;20077;-69
2022/04/30 10:04:37;;;;;;;22.48;16.15;;;;;;;10.94;100.00;98233.03;5000024;28;20047;-72
2022/04/30 10:07:06;;;;;;;22.05;16.88;;;;;;;10.47;100.00;98228.50;5000858;28;20085;-69
2022/04/30 10:09:37;;;;;;;20.58;15.85;;;;;;;10.41;100.00;98232.13;4986042;28;20504;-71
2022/04/30 10:12:19;;;;;;;20.73;15.38;;;;;;;10.83;100.00;98231.66;4996672;28;20049;-71
2022/04/30 10:15:10;;;;;;;17.45;14.82;;;;;;;10.91;100.00;98221.00;4979401;28;20050;-72
2022/04/30 10:17:41;;;;;;;18.92;14.63;;;;;;;10.99;100.00;98218.13;4999825;28;20156;-71
2022/04/30 10:20:21;;;;;;;18.67;14.50;;;;;;;11.38;100.00;98215.91;5002444;28;20142;-71
2022/04/30 10:22:53;;;;;;;16.63;13.23;;;;;;;11.48;100.00;98209.47;5000572;28;20054;-70
2022/04/30 10:25:42;;;;;;;16.20;13.02;;;;;;;11.80;100.00;98204.84;5001167;28;20752;-71
2022/04/30 10:28:17;;;;;;;16.98;13.07;;;;;;;11.84;100.00;98203.81;4999118;28;20062;-71
2022/04/30 10:30:46;;;;;;;16.30;12.65;;;;;;;12.32;100.00;98205.47;4997305;28;20088;-71
2022/04/30 10:33:13;;;;;;;19.80;14.52;;;;;;;11.72;100.00;98205.13;5011878;28;20488;-72
2022/04/30 10:35:45;;;;;;;19.20;14.45;;;;;;;11.70;100.00;98198.28;5002420;28;20069;-71
2022/04/30 10:38:20;;;;;;;18.30;13.52;;;;;;;11.72;100.00;98201.66;5001076;28;20572;-71
2022/04/30 10:40:58;;;;;;;15.82;12.68;;;;;;;11.76;100.00;98194.59;5000967;28;20057;-70
2022/04/30 10:43:26;;;;;;;16.48;13.27;;;;;;;12.07;100.00;98200.38;4999532;28;20427;-70
2022/04/30 10:45:57;;;;;;;17.33;13.48;;;;;;;11.84;100.00;98201.22;4999172;28;20132;-70
2022/04/30 10:48:25;;;;;;;16.88;14.13;;;;;;;11.46;100.00;98211.25;4999006;28;20143;-69
2022/04/30 10:51:06;;;;;;;18.10;13.75;;;;;;;11.52;100.00;98205.00;4999442;28;20123;-70
2022/04/30 10:53:34;;;;;;;18.95;12.70;;;;;;;11.86;100.00;98198.53;4995985;28;20483;-70
2022/04/30 10:56:03;;;;;;;18.77;13.55;;;;;;;11.65;100.00;98205.41;4982721;28;20504;-70
2022/04/30 10:58:31;;;;;;;20.50;12.65;;;;;;;11.70;100.00;98208.69;5001892;28;20082;-71
2022/04/30 11:01:13;;;;;;;20.00;12.23;;;;;;;11.89;100.00;98201.06;4999379;28;20078;-73
2022/04/30 11:03:42;;;;;;;17.70;14.23;;;;;;;11.48;100.00;98206.03;4981098;28;20061;-71
2022/04/30 11:06:12;;;;;;;17.67;13.50;;;;;;;11.58;100.00;98209.13;5000111;28;20053;-72
2022/04/30 11:08:39;;;;;;;17.05;12.55;;;;;;;11.62;100.00;98213.31;5001871;28;20042;-72
2022/04/30 11:11:08;;;;;;;16.33;11.80;;;;;;;11.47;100.00;98202.59;4998328;28;20056;-72
2022/04/30 11:13:35;;;;;;;15.85;12.63;;;;;;;11.58;100.00;98196.97;4995335;28;20097;-71
2022/04/30 11:16:13;;;;;;;13.48;10.77;;;;;;;12.10;100.00;98191.59;5001398;28;20078;-71
2022/04/30 11:18:41;;;;;;;16.13;11.95;;;;;;;11.90;100.00;98192.34;4985699;28;20067;-71
2022/04/30 11:21:08;;;;;;;12.23;9.23;;;;;;;12.63;100.00;98187.75;4983454;28;20167;-72
2022/04/30 11:23:36;;;;;;;12.70;10.23;;;;;;;12.55;100.00;98190.69;5001017;28;20065;-71
2022/04/30 11:26:03;;;;;;;18.90;12.40;;;;;;;12.28;100.00;98187.44;5001647;28;20129;-72
2022/04/30 11:28:31;;;;;;;14.65;11.85;;;;;;;12.16;100.00;98182.69;5003719;28;20054;-71
2022/04/30 11:31:03;;;;;;;17.02;12.25;;;;;;;12.09;100.00;98180.34;4992120;28;20088;-70
2022/04/30 11:33:36;;;;;;;16.10;11.38;;;;;;;11.79;100.00;98186.69;5003403;28;20065;-70
2022/04/30 11:36:04;;;;;;;17.17;11.70;;;;;;;12.05;100.00;98176.16;5002111;28;20494;-70
2022/04/30 11:38:32;;;;;;;15.18;11.48;;;;;;;12.02;100.00;98186.69;5000465;28;20065;-70
2022/04/30 11:41:07;;;;;;;17.10;11.75;;;;;;;11.79;100.00;98179.75;5016421;28;20396;-70
2022/04/30 11:43:35;;;;;;;16.10;12.10;;;;;;;11.79;100.00;98177.16;4998821;28;20108;-70
2022/04/30 11:46:03;;;;;;;18.88;12.52;;;;;;;11.46;100.00;98179.22;5000434;28;20054;-70
2022/04/30 11:48:38;;;;;;;13.73;11.52;;;;;;;11.72;100.00;98180.84;5003090;28;20122;-70
2022/04/30 11:51:10;;;;;;;18.77;13.43;;;;;;;11.57;100.00;98178.84;5017720;28;20041;-70
2022/04/30 11:53:37;;;;;;;17.05;12.88;;;;;;;11.64;100.00;98165.56;4999120;28;20152;-71
2022/04/30 11:56:05;;;;;;;15.15;11.73;;;;;;;11.49;100.00;98174.78;4980534;28;20133;-69
2022/04/30 11:58:42;;;;;;;15.60;12.00;;;;;;;11.73;100.00;98172.16;5001658;28;20086;-71
2022/04/30 12:01:28;;;;;;;16.83;11.82;;;;;;;11.71;100.00;98179.16;5001456;28;20069;-70